Meteo Giornale » Osservazioni meteo Svizzera » Lugano

ore: 23:50 - Osservazioni Meteo Lugano
Lat. 46° 0' N Lon. 8° 58' E Alt. 273 metri s.l.m.

sereno Europe/Zurich

1 °C

Sereno

Temp. 24 Ore

-1 °C

14 °C

Nord

3.7 Km/h

Dew point 1 °C

Umidità 100 %

Visibilità  10 Km

Il sole sorge alle ore 07:27

Il sole tramonta alle ore 16:50

Data e Ora Cielo e Fenomeni T °C DP °C Um. % Pres. hPa Vis. km Vento km/h
Ieri h: 23:50 sereno Sereno 1 1 100 1017 10 N 3.7
Ieri h: 23:20 sereno Sereno 2 1 93 1017 10 N 3.7
Ieri h: 22:50 sereno Sereno 1 1 100 1017 10 N 5.5
Ieri h: 22:20 sereno Sereno 2 1 93 1017 10 N 3.7
Ieri h: 21:50 sereno Sereno 3 2 93 1017 10 N 3.7
Ieri h: 21:20 sereno Sereno 2 1 93 1017 10 N 5.5
Ieri h: 20:50 sereno Sereno 4 3 93 1017 10 N 5.5
Ieri h: 20:20 sereno Sereno 2 0 86 1017 10 N 3.7
Ieri h: 19:50 sereno Sereno 4 3 93 1017 10 N 1.8
Ieri h: 19:20 sereno Sereno 5 3 86 1017 10 N 1.8
Ieri h: 18:50 sereno Sereno 5 4 93 1017 10 N 1.8
Ieri h: 18:20 sereno Sereno 6 4 86 1017 10 N 1.8
Ieri h: 17:50 sereno Sereno 7 3 75 1017 10 N 3.7
Ieri h: 17:20 sereno Sereno 8 3 70 1017 10 N 3.7
Ieri h: 16:50 sereno Sereno 9 4 70 1017 10 N 3.7
Ieri h: 16:20 sereno Sereno 11 4 61 1017 10 N 1.8
Ieri h: 15:50 sereno Sereno 13 4 54 1017 10 N 3.7
Ieri h: 15:20 sereno Sereno 14 4 50 1017 10 N 3.7
Ieri h: 14:50 sereno Sereno 13 4 54 1017 10 N 5.5
Ieri h: 14:20 sereno Sereno 14 3 47 1017 10 N 3.7
Ieri h: 13:50 sereno Sereno 13 2 47 1017 10 N 1.8
Ieri h: 13:20 sereno Sereno 12 3 54 1017 10 N 1.8
Ieri h: 12:50 sereno Sereno 11 2 53 1018 10 N 5.5
Ieri h: 12:20 sereno Sereno 11 3 57 1018 10 N 5.5
Ieri h: 11:50 sereno Sereno 9 2 61 1018 10 N 5.5
Ieri h: 11:20 sereno Sereno 10 3 61 1018 10 N 1.8
Ieri h: 10:50 sereno Sereno 8 2 65 1019 10 N 3.7
Ieri h: 10:20 sereno Sereno 7 3 75 1019 10 N 1.8
Ieri h: 09:50 sereno Sereno 6 2 75 1019 10 N 1.8
Ieri h: 09:20 sereno Sereno 2 1 93 1019 10 N 1.8
Ieri h: 08:50 sereno Sereno 1 0 93 1019 10 N 3.7
Ieri h: 08:20 sereno Sereno -0 -1 92 1019 10 N 1.8
Ieri h: 07:50 sereno Sereno 0 -0 100 1019 10 N 3.7
Ieri h: 07:20 sereno Sereno 0 0 100 1019 10 N 5.5
Ieri h: 06:50 sereno Sereno -0 -1 92 1019 10 N 3.7
Ieri h: 06:20 sereno Sereno 1 0 93 1019 10 N 3.7
Ieri h: 05:50 sereno Sereno 0 0 100 1018 6 N 3.7
Ieri h: 05:20 sereno Sereno 0 0 100 1019 10 N 5.5
Ieri h: 04:50 sereno Sereno -1 -1 100 1019 10 N 3.7
Ieri h: 04:20 sereno Sereno 1 1 100 1019 7 N 1.8
Ieri h: 03:50 sereno Sereno 1 1 100 1019 10 N 5.5
Ieri h: 03:20 sereno Sereno -0 -1 92 1019 10 N 3.7
Ieri h: 02:50 sereno Sereno 1 0 93 1019 10 N 1.8
Ieri h: 02:20 sereno Sereno 1 1 100 1020 10 N 7.4
Ieri h: 01:50 sereno Sereno 2 1 93 1020 10 N 3.7
Ieri h: 01:20 sereno Sereno 1 0 93 1020 10 N 1.8
Ieri h: 00:50 sereno Sereno 2 1 93 1020 10 N 5.5
Ieri h: 00:20 sereno Sereno 2 1 93 1020 10 N 1.8
Ieri h: 23:50 sereno Sereno 2 -0 86 1020 10 N 1.8